Terminal Aerodrome Forecast
Issued by NWS

Home | Current Version | Previous Version | Text Only | Print | Product List | Glossary On
Versions: 1 2 3 4 5 6 7 8 9 10 11 12 13 14 15 16 17 18 19 20 21 22 23 24 25 26
000
FTUS43 KLSX 151700
TAFCPS
TAF
KCPS 151730Z 1518/1618 22010G18KT P6SM BKN050
     FM152100 27009KT P6SM VCTS SCT015 BKN035CB
     FM152300 30011KT P6SM VCSH SCT012 OVC020
     FM160400 35006KT P6SM BKN008
     FM161600 01005KT P6SM SCT025=

USA.gov is the U.S. government's official web portal to all federal, state and local government web resources and services.